createdAt,value
2017-10-07T00:00:08.381Z,1014.02
2017-10-07T00:01:08.359Z,1014.03
2017-10-07T00:02:08.344Z,1014.02
2017-10-07T00:03:08.328Z,1014.07
2017-10-07T00:04:08.310Z,1014.05
2017-10-07T00:05:08.297Z,1014.07
2017-10-07T00:06:08.280Z,1014.04
2017-10-07T00:07:08.265Z,1014.05
2017-10-07T00:08:08.249Z,1014.05
2017-10-07T00:09:08.232Z,1014.04
2017-10-07T00:10:08.224Z,1014.03
2017-10-07T00:11:08.202Z,1014.05
2017-10-07T00:12:08.186Z,1014.05
2017-10-07T00:13:08.169Z,1014.02
2017-10-07T00:14:08.357Z,1014.02
2017-10-07T00:15:08.140Z,1014.04
2017-10-07T00:16:08.122Z,1013.99
2017-10-07T00:17:08.104Z,1013.96
2017-10-07T00:18:08.093Z,1013.96
2017-10-07T00:19:08.074Z,1013.97
2017-10-07T00:20:08.058Z,1013.95
2017-10-07T00:21:08.043Z,1014
2017-10-07T00:22:08.025Z,1013.95
2017-10-07T00:23:08.012Z,1013.96
2017-10-07T00:24:07.996Z,1013.93
2017-10-07T00:25:07.979Z,1013.94
2017-10-07T00:26:07.962Z,1013.92
2017-10-07T00:27:07.947Z,1013.91
2017-10-07T00:28:07.932Z,1013.93
2017-10-07T00:29:07.915Z,1013.96
2017-10-07T00:30:07.900Z,1013.95
2017-10-07T00:31:07.882Z,1013.94
2017-10-07T00:32:07.869Z,1013.89
2017-10-07T00:33:07.851Z,1013.89
2017-10-07T00:34:07.836Z,1013.9
2017-10-07T00:35:07.820Z,1013.9
2017-10-07T00:36:07.808Z,1013.85
2017-10-07T00:37:07.787Z,1013.85
2017-10-07T00:38:07.771Z,1013.84
2017-10-07T00:39:07.755Z,1013.83
2017-10-07T00:40:07.738Z,1013.85
2017-10-07T00:41:07.725Z,1013.82
2017-10-07T00:42:07.707Z,1013.77
2017-10-07T00:43:07.695Z,1013.8
2017-10-07T00:44:07.675Z,1013.81
2017-10-07T00:45:07.662Z,1013.78
2017-10-07T00:46:07.644Z,1013.79
2017-10-07T00:47:07.628Z,1013.75
2017-10-07T00:48:07.611Z,1013.79
2017-10-07T00:49:07.595Z,1013.75
2017-10-07T00:50:07.579Z,1013.79
2017-10-07T00:51:07.561Z,1013.77
2017-10-07T00:52:07.546Z,1013.77
2017-10-07T00:53:07.532Z,1013.76
2017-10-07T00:54:07.516Z,1013.78
2017-10-07T00:55:07.498Z,1013.68
2017-10-07T00:56:07.481Z,1013.71
2017-10-07T00:57:07.466Z,1013.68
2017-10-07T00:58:07.449Z,1013.71
2017-10-07T00:59:07.434Z,1013.68
2017-10-07T01:00:07.418Z,1013.69
2017-10-07T01:01:07.402Z,1013.66
2017-10-07T01:02:07.385Z,1013.64
2017-10-07T01:03:07.369Z,1013.68
2017-10-07T01:04:07.355Z,1013.64
2017-10-07T01:05:07.336Z,1013.62
2017-10-07T01:06:07.319Z,1013.6
2017-10-07T01:07:07.303Z,1013.57
2017-10-07T01:08:07.293Z,1013.58
2017-10-07T01:09:07.272Z,1013.54
2017-10-07T01:10:07.257Z,1013.51
2017-10-07T01:11:07.241Z,1013.48
2017-10-07T01:12:07.223Z,1013.47
2017-10-07T01:13:07.208Z,1013.5
2017-10-07T01:14:07.191Z,1013.49
2017-10-07T01:15:07.177Z,1013.45
2017-10-07T01:16:07.160Z,1013.43
2017-10-07T01:17:07.144Z,1013.46
2017-10-07T01:18:07.125Z,1013.45
2017-10-07T01:19:07.110Z,1013.46
2017-10-07T01:20:07.094Z,1013.42
2017-10-07T01:21:07.077Z,1013.44
2017-10-07T01:22:07.062Z,1013.39
2017-10-07T01:23:07.047Z,1013.44
2017-10-07T01:24:07.029Z,1013.37
2017-10-07T01:25:07.012Z,1013.36
2017-10-07T01:26:06.993Z,1013.35
2017-10-07T01:27:06.979Z,1013.33
2017-10-07T01:28:06.962Z,1013.31
2017-10-07T01:29:06.947Z,1013.3
2017-10-07T01:30:06.935Z,1013.26
2017-10-07T01:31:06.912Z,1013.25
2017-10-07T01:32:06.899Z,1013.23
2017-10-07T01:33:06.884Z,1013.24
2017-10-07T01:34:06.875Z,1013.24
2017-10-07T01:35:06.849Z,1013.21
2017-10-07T01:36:06.836Z,1013.19
2017-10-07T01:37:06.816Z,1013.17
2017-10-07T01:38:06.803Z,1013.17
2017-10-07T01:39:06.784Z,1013.17
2017-10-07T01:40:06.768Z,1013.17
2017-10-07T01:41:06.752Z,1013.14
2017-10-07T01:42:06.737Z,1013.18
2017-10-07T01:43:06.718Z,1013.16
2017-10-07T01:44:06.704Z,1013.16
2017-10-07T01:45:06.684Z,1013.13
2017-10-07T01:46:06.667Z,1013.15
2017-10-07T01:47:06.655Z,1013.14
2017-10-07T01:48:06.634Z,1013.13
2017-10-07T01:49:06.620Z,1013.13
2017-10-07T01:50:06.602Z,1013.09
2017-10-07T01:51:06.588Z,1013.12
2017-10-07T01:52:06.572Z,1013.11
2017-10-07T01:53:06.558Z,1013.07
2017-10-07T01:54:06.540Z,1013.11
2017-10-07T01:55:06.523Z,1013.08
2017-10-07T01:56:06.505Z,1013.08
2017-10-07T01:57:06.488Z,1013.08
2017-10-07T01:58:06.472Z,1013.05
2017-10-07T01:59:06.457Z,1013.09
2017-10-07T02:00:06.439Z,1013.05
2017-10-07T02:01:06.422Z,1013.07
2017-10-07T02:02:06.409Z,1013.07
2017-10-07T02:03:06.392Z,1013.02
2017-10-07T02:04:06.373Z,1013.05
2017-10-07T02:05:06.359Z,1013.05
2017-10-07T02:06:06.341Z,1013.04
2017-10-07T02:07:06.331Z,1013.06
2017-10-07T02:08:06.310Z,1013.04
2017-10-07T02:09:06.293Z,1013.06
2017-10-07T02:10:06.278Z,1013.05
2017-10-07T02:11:06.263Z,1013.02
2017-10-07T02:12:06.245Z,1013.06
2017-10-07T02:13:06.230Z,1013.01
2017-10-07T02:14:06.415Z,1013.07
2017-10-07T02:15:06.212Z,1013.04
2017-10-07T02:16:06.180Z,1013.03
2017-10-07T02:17:06.167Z,1013.04
2017-10-07T02:18:06.148Z,1013.04
2017-10-07T02:19:06.132Z,1013
2017-10-07T02:20:06.115Z,1013.05
2017-10-07T02:21:06.099Z,1013.04
2017-10-07T02:22:06.083Z,1013.04
2017-10-07T02:23:06.065Z,1013.05
2017-10-07T02:24:06.054Z,1013.05
2017-10-07T02:25:06.042Z,1013.06
2017-10-07T02:26:06.019Z,1013.07
2017-10-07T02:27:06.004Z,1013.05
2017-10-07T02:28:05.985Z,1013.04
2017-10-07T02:29:05.970Z,1013.03
2017-10-07T02:30:05.957Z,1013.07
2017-10-07T02:31:05.935Z,1013.07
2017-10-07T02:32:05.920Z,1013.04
2017-10-07T02:33:05.911Z,1012.99
2017-10-07T02:34:05.901Z,1013.02
2017-10-07T02:35:05.874Z,1012.99
2017-10-07T02:36:05.861Z,1013.03
2017-10-07T02:37:05.844Z,1012.99
2017-10-07T02:38:05.823Z,1012.98
2017-10-07T02:39:05.809Z,1012.95
2017-10-07T02:40:05.798Z,1012.97
2017-10-07T02:41:05.780Z,1012.88
2017-10-07T02:42:05.768Z,1012.86
2017-10-07T02:43:05.742Z,1012.84
2017-10-07T02:44:05.727Z,1012.87
2017-10-07T02:45:05.712Z,1012.85
2017-10-07T02:46:05.694Z,1012.84
2017-10-07T02:47:05.679Z,1012.8
2017-10-07T02:48:05.665Z,1012.77
2017-10-07T02:49:05.649Z,1012.84
2017-10-07T02:50:05.630Z,1012.81
2017-10-07T02:51:05.615Z,1012.79
2017-10-07T02:52:05.597Z,1012.76
2017-10-07T02:53:05.590Z,1012.8
2017-10-07T02:54:05.566Z,1012.8
2017-10-07T02:55:05.598Z,1012.8
2017-10-07T02:56:05.534Z,1012.76
2017-10-07T02:57:05.516Z,1012.77
2017-10-07T02:58:05.499Z,1012.74
2017-10-07T02:59:05.484Z,1012.75
2017-10-07T03:00:05.468Z,1012.73
2017-10-07T03:01:05.450Z,1012.73
2017-10-07T03:02:05.435Z,1012.7
2017-10-07T03:03:05.420Z,1012.7
2017-10-07T03:04:05.402Z,1012.7
2017-10-07T03:05:05.386Z,1012.68
2017-10-07T03:06:05.373Z,1012.74
2017-10-07T03:07:05.353Z,1012.72
2017-10-07T03:08:05.336Z,1012.69
2017-10-07T03:09:05.321Z,1012.67
2017-10-07T03:10:05.305Z,1012.66
2017-10-07T03:11:05.287Z,1012.61
2017-10-07T03:12:05.272Z,1012.66
2017-10-07T03:13:05.255Z,1012.69
2017-10-07T03:14:05.239Z,1012.71
2017-10-07T03:15:05.223Z,1012.69
2017-10-07T03:16:05.207Z,1012.67
2017-10-07T03:17:05.189Z,1012.69
2017-10-07T03:18:05.174Z,1012.69
2017-10-07T03:19:05.157Z,1012.69
2017-10-07T03:20:05.145Z,1012.68
2017-10-07T03:21:05.124Z,1012.66
2017-10-07T03:22:05.108Z,1012.61
2017-10-07T03:23:05.092Z,1012.64
2017-10-07T03:24:05.076Z,1012.67
2017-10-07T03:25:05.058Z,1012.63
2017-10-07T03:26:05.044Z,1012.65
2017-10-07T03:27:05.026Z,1012.67
2017-10-07T03:28:05.013Z,1012.67
2017-10-07T03:29:04.993Z,1012.64
2017-10-07T03:30:04.979Z,1012.66
2017-10-07T03:31:04.963Z,1012.62
2017-10-07T03:32:04.944Z,1012.61
2017-10-07T03:33:04.931Z,1012.61
2017-10-07T03:34:04.913Z,1012.56
2017-10-07T03:35:04.897Z,1012.54
2017-10-07T03:36:04.880Z,1012.51
2017-10-07T03:37:04.862Z,1012.44
2017-10-07T03:38:04.847Z,1012.44
2017-10-07T03:39:04.830Z,1012.47
2017-10-07T03:40:04.816Z,1012.37
2017-10-07T03:41:04.799Z,1012.37
2017-10-07T03:42:04.784Z,1012.4
2017-10-07T03:43:04.764Z,1012.34
2017-10-07T03:44:04.750Z,1012.39
2017-10-07T03:45:04.731Z,1012.36
2017-10-07T03:46:04.725Z,1012.3
2017-10-07T03:47:04.700Z,1012.32
2017-10-07T03:48:04.685Z,1012.3
2017-10-07T03:49:04.675Z,1012.29
2017-10-07T03:50:04.649Z,1012.25
2017-10-07T03:51:04.632Z,1012.24
2017-10-07T03:52:04.618Z,1012.29
2017-10-07T03:53:04.601Z,1012.25
2017-10-07T03:54:04.583Z,1012.22
2017-10-07T03:55:04.569Z,1012.24
2017-10-07T03:56:04.556Z,1012.22
2017-10-07T03:57:04.534Z,1012.16
2017-10-07T03:58:04.520Z,1012.15
2017-10-07T03:59:04.502Z,1012.18
2017-10-07T04:00:04.493Z,1012.12
2017-10-07T04:01:04.475Z,1012.12
2017-10-07T04:02:04.450Z,1012.09
2017-10-07T04:03:04.439Z,1012.1
2017-10-07T04:04:04.419Z,1012.1
2017-10-07T04:05:04.401Z,1012.09
2017-10-07T04:06:04.383Z,1012.06
2017-10-07T04:07:04.368Z,1012.05
2017-10-07T04:08:04.353Z,1012.05
2017-10-07T04:09:04.343Z,1012.03
2017-10-07T04:10:04.320Z,1012.05
2017-10-07T04:11:04.304Z,1012.04
2017-10-07T04:12:04.285Z,1012.05
2017-10-07T04:13:04.271Z,1012
2017-10-07T04:14:04.465Z,1012
2017-10-07T04:15:04.240Z,1011.99
2017-10-07T04:16:04.219Z,1011.98
2017-10-07T04:17:04.205Z,1011.96
2017-10-07T04:18:04.189Z,1011.91
2017-10-07T04:19:04.170Z,1011.99
2017-10-07T04:20:04.154Z,1011.95
2017-10-07T04:21:04.138Z,1011.95
2017-10-07T04:22:04.128Z,1011.93
2017-10-07T04:23:04.108Z,1011.99
2017-10-07T04:24:04.087Z,1011.93
2017-10-07T04:25:04.071Z,1011.99
2017-10-07T04:26:04.069Z,1011.97
2017-10-07T04:27:04.046Z,1011.99
2017-10-07T04:28:04.020Z,1012.01
2017-10-07T04:29:04.005Z,1011.99
2017-10-07T04:30:03.988Z,1012.04
2017-10-07T04:31:03.970Z,1012
2017-10-07T04:32:03.956Z,1012.03
2017-10-07T04:33:03.937Z,1012.04
2017-10-07T04:34:03.923Z,1012.07
2017-10-07T04:35:03.906Z,1012.04
2017-10-07T04:36:03.890Z,1012.08
2017-10-07T04:37:03.871Z,1012.15
2017-10-07T04:38:03.872Z,1012.14
2017-10-07T04:39:03.839Z,1012.11
2017-10-07T04:40:03.824Z,1012.13
2017-10-07T04:41:03.803Z,1012.24
2017-10-07T04:42:03.788Z,1012.15
2017-10-07T04:43:03.775Z,1012.19
2017-10-07T04:44:03.755Z,1012.18
2017-10-07T04:45:03.740Z,1012.17
2017-10-07T04:46:03.724Z,1012.15
2017-10-07T04:47:03.707Z,1012.11
2017-10-07T04:48:03.688Z,1012.17
2017-10-07T04:49:03.671Z,1012.13
2017-10-07T04:50:03.656Z,1012.12
2017-10-07T04:51:03.638Z,1012.14
2017-10-07T04:52:03.621Z,1012.1
2017-10-07T04:53:03.607Z,1012.15
2017-10-07T04:54:03.598Z,1012.15
2017-10-07T04:55:03.575Z,1012.11
2017-10-07T04:56:03.555Z,1012.11
2017-10-07T04:57:03.537Z,1012.14
2017-10-07T04:58:03.523Z,1012.14
2017-10-07T04:59:03.530Z,1012.12
2017-10-07T05:00:03.489Z,1012.14
2017-10-07T05:01:03.472Z,1012.13
2017-10-07T05:02:03.457Z,1012.11
2017-10-07T05:03:03.439Z,1012.07
2017-10-07T05:04:03.422Z,1012.15
2017-10-07T05:05:03.405Z,1012.12
2017-10-07T05:06:03.389Z,1012.11
2017-10-07T05:07:03.372Z,1012.1
2017-10-07T05:08:03.356Z,1012.11
2017-10-07T05:09:03.346Z,1012.05
2017-10-07T05:10:03.322Z,1012.11
2017-10-07T05:11:03.304Z,1012.05
2017-10-07T05:12:03.288Z,1012.04
2017-10-07T05:13:03.274Z,1012.06
2017-10-07T05:14:03.258Z,1012.04
2017-10-07T05:15:03.239Z,1012.07
2017-10-07T05:16:03.223Z,1012.07
2017-10-07T05:17:03.212Z,1012.06
2017-10-07T05:18:03.190Z,1012.04
2017-10-07T05:19:03.173Z,1012.05
2017-10-07T05:20:03.157Z,1011.99
2017-10-07T05:21:03.141Z,1011.97
2017-10-07T05:22:03.124Z,1011.99
2017-10-07T05:23:03.109Z,1012.01
2017-10-07T05:24:03.097Z,1011.97
2017-10-07T05:25:03.072Z,1011.93
2017-10-07T05:26:03.059Z,1011.92
2017-10-07T05:27:03.040Z,1011.89
2017-10-07T05:28:03.025Z,1011.84
2017-10-07T05:29:03.010Z,1011.86
2017-10-07T05:30:02.991Z,1011.83
2017-10-07T05:31:02.975Z,1011.81
2017-10-07T05:32:02.959Z,1011.8
2017-10-07T05:33:02.938Z,1011.79
2017-10-07T05:34:02.923Z,1011.77
2017-10-07T05:35:02.906Z,1011.71
2017-10-07T05:36:02.889Z,1011.65
2017-10-07T05:37:02.872Z,1011.68
2017-10-07T05:38:02.864Z,1011.66
2017-10-07T05:39:02.840Z,1011.64
2017-10-07T05:40:02.822Z,1011.64
2017-10-07T05:41:02.806Z,1011.61
2017-10-07T05:42:02.791Z,1011.63
2017-10-07T05:43:02.773Z,1011.57
2017-10-07T05:44:02.758Z,1011.63
2017-10-07T05:45:02.740Z,1011.51
2017-10-07T05:46:02.726Z,1011.54
2017-10-07T05:47:02.706Z,1011.48
2017-10-07T05:48:02.692Z,1011.5
2017-10-07T05:49:02.672Z,1011.45
2017-10-07T05:50:02.657Z,1011.44
2017-10-07T05:51:02.640Z,1011.42
2017-10-07T05:52:02.623Z,1011.4
2017-10-07T05:53:02.608Z,1011.43
2017-10-07T05:54:02.590Z,1011.38
2017-10-07T05:55:02.573Z,1011.37
2017-10-07T05:56:02.557Z,1011.38
2017-10-07T05:57:02.544Z,1011.4
2017-10-07T05:58:02.522Z,1011.35
2017-10-07T05:59:02.506Z,1011.38
2017-10-07T06:00:02.489Z,1011.37
2017-10-07T06:01:02.474Z,1011.39
2017-10-07T06:02:02.456Z,1011.4
2017-10-07T06:03:02.438Z,1011.39
2017-10-07T06:04:02.422Z,1011.42
2017-10-07T06:05:02.408Z,1011.38
2017-10-07T06:06:02.400Z,1011.39
2017-10-07T06:07:02.373Z,1011.37
2017-10-07T06:08:02.364Z,1011.39
2017-10-07T06:09:02.338Z,1011.36
2017-10-07T06:10:02.324Z,1011.35
2017-10-07T06:11:02.307Z,1011.35
2017-10-07T06:12:02.289Z,1011.36
2017-10-07T06:13:02.271Z,1011.32
2017-10-07T06:14:02.257Z,1011.28
2017-10-07T06:15:02.462Z,1011.24
2017-10-07T06:16:02.222Z,1011.23
2017-10-07T06:17:02.206Z,1011.22
2017-10-07T06:18:02.191Z,1011.26
2017-10-07T06:19:02.173Z,1011.2
2017-10-07T06:20:02.155Z,1011.24
2017-10-07T06:21:02.140Z,1011.22
2017-10-07T06:22:02.122Z,1011.2
2017-10-07T06:23:02.107Z,1011.17
2017-10-07T06:24:02.091Z,1011.13
2017-10-07T06:25:02.075Z,1011.15
2017-10-07T06:26:02.058Z,1011.04
2017-10-07T06:27:02.043Z,1011.06
2017-10-07T06:28:02.036Z,1011.06
2017-10-07T06:29:02.009Z,1011.11
2017-10-07T06:30:01.995Z,1011.08
2017-10-07T06:31:01.979Z,1011.06
2017-10-07T06:32:01.958Z,1011.03
2017-10-07T06:33:01.939Z,1011.07
2017-10-07T06:34:01.933Z,1011.06
2017-10-07T06:35:01.909Z,1011.06
2017-10-07T06:36:01.892Z,1011.09
2017-10-07T06:37:01.875Z,1011.1
2017-10-07T06:38:01.857Z,1011.1
2017-10-07T06:39:01.841Z,1011.19
2017-10-07T06:40:01.824Z,1011.15
2017-10-07T06:41:01.809Z,1011.15
2017-10-07T06:42:01.791Z,1011.11
2017-10-07T06:43:01.777Z,1011.11
2017-10-07T06:44:01.760Z,1011.1
2017-10-07T06:45:01.742Z,1011.1
2017-10-07T06:46:01.728Z,1011.07
2017-10-07T06:47:01.712Z,1011.02
2017-10-07T06:48:01.694Z,1011.05
2017-10-07T06:49:01.677Z,1011
2017-10-07T06:50:01.671Z,1010.98
2017-10-07T06:51:01.646Z,1010.94
2017-10-07T06:52:01.628Z,1010.96
2017-10-07T06:53:01.611Z,1010.98
2017-10-07T06:54:01.595Z,1010.94
2017-10-07T06:55:01.578Z,1010.91
2017-10-07T06:56:01.562Z,1010.89
2017-10-07T06:57:01.545Z,1010.9
2017-10-07T06:58:01.531Z,1010.86
2017-10-07T06:59:01.513Z,1010.89
2017-10-07T07:00:01.499Z,1010.92
2017-10-07T07:01:01.481Z,1010.91
2017-10-07T07:02:01.466Z,1010.91
2017-10-07T07:03:01.450Z,1010.9
2017-10-07T07:04:01.433Z,1010.85
2017-10-07T07:05:01.416Z,1010.8
2017-10-07T07:06:01.399Z,1010.82
2017-10-07T07:07:01.382Z,1010.8
2017-10-07T07:08:01.368Z,1010.82
2017-10-07T07:09:01.349Z,1010.76
2017-10-07T07:10:01.335Z,1010.71
2017-10-07T07:11:01.317Z,1010.86
2017-10-07T07:12:01.302Z,1010.75
2017-10-07T07:13:01.289Z,1010.78
2017-10-07T07:14:01.270Z,1010.75
2017-10-07T07:15:01.253Z,1010.68
2017-10-07T07:16:01.237Z,1010.63
2017-10-07T07:17:01.223Z,1010.74
2017-10-07T07:18:01.205Z,1010.71
2017-10-07T07:19:01.191Z,1010.61
2017-10-07T07:20:01.174Z,1010.62
2017-10-07T07:21:01.158Z,1010.58
2017-10-07T07:22:01.144Z,1010.57
2017-10-07T07:23:01.127Z,1010.52
2017-10-07T07:24:01.111Z,1010.59
2017-10-07T07:25:01.096Z,1010.52
2017-10-07T07:26:01.080Z,1010.52
2017-10-07T07:27:01.064Z,1010.45
2017-10-07T07:28:01.049Z,1010.46
2017-10-07T07:29:01.030Z,1010.48
2017-10-07T07:30:01.013Z,1010.44
2017-10-07T07:31:01.000Z,1010.4
2017-10-07T07:32:00.983Z,1010.38
2017-10-07T07:33:00.965Z,1010.36
2017-10-07T07:34:00.950Z,1010.36
2017-10-07T07:35:00.937Z,1010.36
2017-10-07T07:36:00.917Z,1010.33
2017-10-07T07:37:00.904Z,1010.35
2017-10-07T07:38:00.887Z,1010.3
2017-10-07T07:39:00.872Z,1010.29
2017-10-07T07:40:00.854Z,1010.32
2017-10-07T07:41:00.837Z,1010.29
2017-10-07T07:42:00.822Z,1010.28
2017-10-07T07:43:00.806Z,1010.23
2017-10-07T07:44:00.788Z,1010.18
2017-10-07T07:45:00.778Z,1010.22
2017-10-07T07:46:00.758Z,1010.22
2017-10-07T07:47:00.744Z,1010.14
2017-10-07T07:48:00.725Z,1010.16
2017-10-07T07:49:00.712Z,1010.16
2017-10-07T07:50:00.702Z,1010.15
2017-10-07T07:51:00.679Z,1010.18
2017-10-07T07:52:00.663Z,1010.21
2017-10-07T07:53:00.648Z,1010.11
2017-10-07T07:54:00.631Z,1010.25
2017-10-07T07:55:00.614Z,1010.11
2017-10-07T07:56:00.599Z,1010.12
2017-10-07T07:57:00.585Z,1010.07
2017-10-07T07:58:00.569Z,1010.07
2017-10-07T07:59:00.553Z,1010.1
2017-10-07T08:00:00.537Z,1010.04
2017-10-07T08:01:00.524Z,1010.05
2017-10-07T08:02:00.505Z,1010.05
2017-10-07T08:03:00.491Z,1010.11
2017-10-07T08:04:00.476Z,1010.1
2017-10-07T08:05:00.459Z,1010.09
2017-10-07T08:06:00.443Z,1010.11
2017-10-07T08:07:00.425Z,1010.12
2017-10-07T08:08:00.412Z,1010.12
2017-10-07T08:09:00.395Z,1010.12
2017-10-07T08:10:00.379Z,1010.14
2017-10-07T08:11:00.364Z,1010.14
2017-10-07T08:12:00.349Z,1010.12
2017-10-07T08:13:00.334Z,1010.08
2017-10-07T08:14:00.317Z,1010.1
2017-10-07T08:15:00.504Z,1010.05
2017-10-07T08:16:00.289Z,1010.07
2017-10-07T08:17:00.288Z,1009.97
2017-10-07T08:18:00.254Z,1010.02
2017-10-07T08:19:00.239Z,1010.01
2017-10-07T08:20:00.226Z,1009.94
2017-10-07T08:21:00.206Z,1009.97
2017-10-07T08:22:00.193Z,1009.96
2017-10-07T08:23:00.183Z,1009.91
2017-10-07T08:24:00.162Z,1009.87
2017-10-07T08:25:00.153Z,1009.89
2017-10-07T08:26:00.131Z,1009.86
2017-10-07T08:27:00.122Z,1009.81
2017-10-07T08:28:00.099Z,1009.8
2017-10-07T08:29:00.094Z,1009.8
2017-10-07T08:30:00.075Z,1009.76
2017-10-07T08:31:00.057Z,1009.81
2017-10-07T08:32:00.039Z,1009.7
2017-10-07T08:33:00.029Z,1009.71
2017-10-07T08:34:00.010Z,1009.65
2017-10-07T08:34:59.993Z,1009.59
2017-10-07T08:35:59.979Z,1009.62
2017-10-07T08:36:59.969Z,1009.69
2017-10-07T08:37:59.949Z,1009.61
2017-10-07T08:38:59.932Z,1009.56
2017-10-07T08:39:59.916Z,1009.62
2017-10-07T08:40:59.905Z,1009.6
2017-10-07T08:41:59.887Z,1009.61
2017-10-07T08:42:59.870Z,1009.53
2017-10-07T08:43:59.866Z,1009.65
2017-10-07T08:44:59.841Z,1009.61
2017-10-07T08:45:59.825Z,1009.64
2017-10-07T08:46:59.810Z,1009.68
2017-10-07T08:47:59.799Z,1009.64
2017-10-07T08:48:59.780Z,1009.6
2017-10-07T08:49:59.764Z,1009.6
2017-10-07T08:50:59.753Z,1009.59
2017-10-07T08:51:59.735Z,1009.58
2017-10-07T08:52:59.723Z,1009.55
2017-10-07T08:53:59.710Z,1009.51
2017-10-07T08:54:59.691Z,1009.54
2017-10-07T08:55:59.678Z,1009.5
2017-10-07T08:56:59.661Z,1009.55
2017-10-07T08:57:59.647Z,1009.54
2017-10-07T08:58:59.631Z,1009.5
2017-10-07T08:59:59.619Z,1009.53
2017-10-07T09:00:59.603Z,1009.55
2017-10-07T09:01:59.584Z,1009.45
2017-10-07T09:02:59.570Z,1009.48
2017-10-07T09:03:59.555Z,1009.5
2017-10-07T09:04:59.539Z,1009.46
2017-10-07T09:05:59.527Z,1009.47
2017-10-07T09:06:59.509Z,1009.34
2017-10-07T09:07:59.497Z,1009.45
2017-10-07T09:08:59.480Z,1009.31
2017-10-07T09:09:59.466Z,1009.34
2017-10-07T09:10:59.451Z,1009.3
2017-10-07T09:11:59.433Z,1009.31
2017-10-07T09:12:59.419Z,1009.29
2017-10-07T09:13:59.403Z,1009.24
2017-10-07T09:14:59.388Z,1009.3
2017-10-07T09:15:59.373Z,1009.29
2017-10-07T09:16:59.360Z,1009.39
2017-10-07T09:17:59.346Z,1009.4
2017-10-07T09:18:59.329Z,1009.36
2017-10-07T09:19:59.314Z,1009.36
2017-10-07T09:20:59.302Z,1009.34
2017-10-07T09:21:59.284Z,1009.19
2017-10-07T09:22:59.267Z,1009.18
2017-10-07T09:23:59.253Z,1009.18
2017-10-07T09:24:59.237Z,1009.07
2017-10-07T09:25:59.220Z,1009.1
2017-10-07T09:26:59.205Z,1009.17
2017-10-07T09:27:59.192Z,1009.07
2017-10-07T09:28:59.175Z,1009.02
2017-10-07T09:29:59.159Z,1008.96
2017-10-07T09:30:59.150Z,1009.02
2017-10-07T09:31:59.131Z,1008.94
2017-10-07T09:32:59.114Z,1008.91
2017-10-07T09:33:59.099Z,1008.92
2017-10-07T09:34:59.082Z,1008.94
2017-10-07T09:35:59.068Z,1008.87
2017-10-07T09:36:59.050Z,1008.82
2017-10-07T09:37:59.036Z,1008.88
2017-10-07T09:38:59.018Z,1008.77
2017-10-07T09:39:59.003Z,1008.71
2017-10-07T09:40:58.990Z,1008.72
2017-10-07T09:41:58.973Z,1008.8
2017-10-07T09:42:58.956Z,1008.7
2017-10-07T09:43:58.941Z,1008.6
2017-10-07T09:44:58.926Z,1008.61
2017-10-07T09:45:58.911Z,1008.5
2017-10-07T09:46:58.896Z,1008.56
2017-10-07T09:47:58.878Z,1008.59
2017-10-07T09:48:58.864Z,1008.6
2017-10-07T09:49:58.850Z,1008.51
2017-10-07T09:50:58.833Z,1008.47
2017-10-07T09:51:58.816Z,1008.47
2017-10-07T09:52:58.803Z,1008.4
2017-10-07T09:53:58.788Z,1008.44
2017-10-07T09:54:58.772Z,1008.46
2017-10-07T09:55:58.770Z,1008.38
2017-10-07T09:56:58.744Z,1008.32
2017-10-07T09:57:58.727Z,1008.28
2017-10-07T09:58:58.712Z,1008.32
2017-10-07T09:59:58.700Z,1008.33
2017-10-07T10:00:58.684Z,1008.4
2017-10-07T10:01:58.669Z,1008.25
2017-10-07T10:02:58.655Z,1008.27
2017-10-07T10:03:58.642Z,1008.42
2017-10-07T10:04:58.628Z,1008.2
2017-10-07T10:05:58.609Z,1008.22
2017-10-07T10:06:58.600Z,1008.2
2017-10-07T10:07:58.581Z,1008.22
2017-10-07T10:08:58.566Z,1008.21
2017-10-07T10:09:58.551Z,1008.2
2017-10-07T10:10:58.536Z,1008.09
2017-10-07T10:11:58.519Z,1008.15
2017-10-07T10:12:58.506Z,1008.31
2017-10-07T10:13:58.494Z,1008.21
2017-10-07T10:14:58.475Z,1008.18
2017-10-07T10:15:58.462Z,1008.2
2017-10-07T10:16:58.446Z,1008.21
2017-10-07T10:17:58.432Z,1008.31
2017-10-07T10:18:58.418Z,1008.26
2017-10-07T10:19:58.400Z,1008.26
2017-10-07T10:20:58.392Z,1008.25
2017-10-07T10:21:58.370Z,1008.13
2017-10-07T10:22:58.357Z,1008.2
2017-10-07T10:23:58.341Z,1008.24
2017-10-07T10:24:58.325Z,1008.21
2017-10-07T10:25:58.310Z,1008.15
2017-10-07T10:26:58.296Z,1008.2
2017-10-07T10:27:58.281Z,1008.22
2017-10-07T10:28:58.264Z,1008.21
2017-10-07T10:29:58.252Z,1008.19
2017-10-07T10:30:58.235Z,1008.23
2017-10-07T10:31:58.218Z,1008.19
2017-10-07T10:32:58.207Z,1008.18
2017-10-07T10:33:58.189Z,1008.06
2017-10-07T10:34:58.174Z,1008.08
2017-10-07T10:35:58.157Z,1008.17
2017-10-07T10:36:58.141Z,1008.04
2017-10-07T10:37:58.126Z,1008.06
2017-10-07T10:38:58.109Z,1007.95
2017-10-07T10:39:58.113Z,1008.04
2017-10-07T10:40:58.080Z,1007.89
2017-10-07T10:41:58.063Z,1007.93
2017-10-07T10:42:58.047Z,1007.91
2017-10-07T10:43:58.033Z,1008.06
2017-10-07T10:44:58.016Z,1008.06
2017-10-07T10:45:58.005Z,1007.94
2017-10-07T10:46:57.984Z,1008.05
2017-10-07T10:47:57.969Z,1007.99
2017-10-07T10:48:57.952Z,1008.09
2017-10-07T10:49:57.936Z,1008.05
2017-10-07T10:50:57.922Z,1008.05
2017-10-07T10:51:57.905Z,1008.07
2017-10-07T10:52:57.897Z,1008.08
2017-10-07T10:53:57.873Z,1008.11
2017-10-07T10:54:57.857Z,1008.14
2017-10-07T10:55:57.842Z,1008.23
2017-10-07T10:56:57.827Z,1008.13
2017-10-07T10:57:57.809Z,1008.13
2017-10-07T10:58:57.793Z,1008.11
2017-10-07T10:59:57.779Z,1008.07
2017-10-07T11:00:57.759Z,1008.09
2017-10-07T11:01:57.746Z,1008.07
2017-10-07T11:02:57.728Z,1008.1
2017-10-07T11:03:57.712Z,1008.05
2017-10-07T11:04:57.697Z,1007.97
2017-10-07T11:05:57.680Z,1008.14
2017-10-07T11:06:57.666Z,1008.04
2017-10-07T11:07:57.647Z,1007.9
2017-10-07T11:08:57.635Z,1007.86
2017-10-07T11:09:57.614Z,1007.87
2017-10-07T11:10:57.609Z,1007.75
2017-10-07T11:11:57.580Z,1007.69
2017-10-07T11:12:57.564Z,1007.79
2017-10-07T11:13:57.549Z,1007.67
2017-10-07T11:14:57.532Z,1007.75
2017-10-07T11:15:57.517Z,1007.71
2017-10-07T11:16:57.499Z,1007.74
2017-10-07T11:17:57.485Z,1007.67
2017-10-07T11:18:57.466Z,1007.58
2017-10-07T11:19:57.448Z,1007.64
2017-10-07T11:20:57.434Z,1007.57
2017-10-07T11:21:57.422Z,1007.55
2017-10-07T11:22:57.399Z,1007.51
2017-10-07T11:23:57.383Z,1007.51
2017-10-07T11:24:57.388Z,1007.58
2017-10-07T11:25:57.360Z,1007.51
2017-10-07T11:26:57.334Z,1007.51
2017-10-07T11:27:57.318Z,1007.45
2017-10-07T11:28:57.301Z,1007.31
2017-10-07T11:29:57.285Z,1007.35
2017-10-07T11:30:57.268Z,1007.47
2017-10-07T11:31:57.253Z,1007.33
2017-10-07T11:32:57.237Z,1007.4
2017-10-07T11:33:57.218Z,1007.31
2017-10-07T11:34:57.203Z,1007.32
2017-10-07T11:35:57.189Z,1007.36
2017-10-07T11:36:57.170Z,1007.3
2017-10-07T11:37:57.150Z,1007.24
2017-10-07T11:38:57.134Z,1007.23
2017-10-07T11:39:57.118Z,1007.24
2017-10-07T11:40:57.103Z,1007.14
2017-10-07T11:41:57.088Z,1007.2
2017-10-07T11:42:57.068Z,1007.24
2017-10-07T11:43:57.052Z,1007.31
2017-10-07T11:44:57.034Z,1007.2
2017-10-07T11:45:57.015Z,1007.15
2017-10-07T11:46:56.999Z,1007.12
2017-10-07T11:47:56.982Z,1007.09
2017-10-07T11:48:56.965Z,1007.16
2017-10-07T11:49:56.948Z,1007.15
2017-10-07T11:50:56.932Z,1007.03
2017-10-07T11:51:56.915Z,1007.11
2017-10-07T11:52:56.897Z,1007.06
2017-10-07T11:53:56.880Z,1006.97
2017-10-07T11:54:56.863Z,1006.98
2017-10-07T11:55:56.848Z,1006.96
2017-10-07T11:56:56.832Z,1006.99
2017-10-07T11:57:56.816Z,1006.96
2017-10-07T11:58:56.797Z,1007.02
2017-10-07T11:59:56.781Z,1006.94
2017-10-07T12:00:56.760Z,1006.93
2017-10-07T12:01:56.744Z,1006.87
2017-10-07T12:02:56.730Z,1006.88
2017-10-07T12:03:56.712Z,1006.84
2017-10-07T12:04:56.697Z,1006.84
2017-10-07T12:05:56.677Z,1006.8
2017-10-07T12:06:56.660Z,1006.81
2017-10-07T12:07:56.653Z,1006.81